Capitol Logistics 448


KMSP
Minneapolis-St Paul International Airport
Minneapolis, Minnesota, US
KSLC
Salt Lake City International Airport
Salt Lake City, Utah, US

Activity Log

Date Flight Route Aircraft Duration
11/12/2019 CPX448 DWN7.ABR.J158.DDY.NORDK6 B738 2h 33m
02/24/2019 CPX448 LEINY6 LEINY RAP DDY NORDK6 B752 2h 41m

Route Details

Aircraft Information
Primary: Boeing 757-200SF
Backup: Boeing 737-800BCF
Route Data
Distance: 860nm
Sched. Duration: 2h 50m
Avg. Duration: 2h 37m (-13m)
Times Flown: 2
Recm'd Route: LEINY6 LEINY RAP DDY NORDK6
Planned Altitude: 34,000ft
Origin Wx: KMSP 312153Z 30020G37KT 10SM FEW030 BKN150 OVC250 10/01 A2979 RMK AO2 PK WND 31037/2147 SLP095 T01000011
Dest. Wx: KSLC 312154Z 30006KT 10SM FEW240 18/M01 A3033 RMK AO2 SLP244 T01781006 VISNO NW RNWY $
Notes:

Financial History
Total Freight: 70,492lbs
Average Load: 35,246lbs/flt
Fuel Used: 32,973lbs
Avg. Fuel Used: 16,487lbs/flt
Fuel Expense: $39,897
Avg. Fuel Expense: $19,949
Avg. Fuel Cost: $1.21/lbs
Total Gross Income: $93,113
Pilot Pay: $458
Total Expenses: $10,160
Total Revenue: $41,826
Average Revenue: $46,556.32